createdAt,value
2018-09-14T00:00:08.180Z,16.20
2018-09-14T00:02:43.549Z,16.30
2018-09-14T00:05:18.275Z,16.30
2018-09-14T00:07:53.176Z,16.20
2018-09-14T00:10:28.453Z,16.20
2018-09-14T00:13:03.219Z,16.30
2018-09-14T00:15:38.141Z,16.30
2018-09-14T00:18:13.019Z,16.20
2018-09-14T00:20:48.315Z,16.20
2018-09-14T00:23:23.222Z,16.30
2018-09-14T00:25:58.024Z,16.30
2018-09-14T00:28:33.070Z,16.20
2018-09-14T00:31:08.538Z,16.10
2018-09-14T00:33:43.193Z,16.00
2018-09-14T00:36:18.099Z,16.10
2018-09-14T00:38:52.925Z,15.90
2018-09-14T00:41:27.471Z,15.90
2018-09-14T00:44:02.877Z,15.90
2018-09-14T00:46:38.402Z,15.90
2018-09-14T00:49:20.150Z,15.90
2018-09-14T00:51:54.893Z,15.80
2018-09-14T00:54:29.743Z,15.70
2018-09-14T00:57:04.673Z,15.80
2018-09-14T00:59:39.478Z,15.90
2018-09-14T01:02:14.373Z,15.60
2018-09-14T01:04:49.278Z,15.50
2018-09-14T01:07:24.422Z,15.40
2018-09-14T01:09:59.438Z,15.30
2018-09-14T01:12:34.540Z,15.40
2018-09-14T01:15:09.323Z,15.40
2018-09-14T01:17:44.133Z,15.40
2018-09-14T01:20:19.198Z,15.40
2018-09-14T01:22:54.562Z,15.40
2018-09-14T01:25:29.308Z,15.50
2018-09-14T01:28:04.626Z,15.60
2018-09-14T01:30:39.606Z,15.70
2018-09-14T01:33:14.176Z,15.70
2018-09-14T01:35:54.254Z,15.70
2018-09-14T01:38:29.081Z,15.60
2018-09-14T01:41:03.989Z,15.50
2018-09-14T01:43:38.974Z,15.50
2018-09-14T01:46:13.783Z,15.60
2018-09-14T01:48:48.523Z,15.60
2018-09-14T01:51:23.613Z,15.50
2018-09-14T01:53:58.636Z,15.60
2018-09-14T01:56:33.452Z,15.60
2018-09-14T01:59:08.175Z,15.50
2018-09-14T02:01:43.884Z,15.50
2018-09-14T02:04:19.693Z,15.30
2018-09-14T02:06:54.578Z,15.30
2018-09-14T02:09:29.389Z,15.40
2018-09-14T02:12:04.706Z,15.40
2018-09-14T02:14:39.315Z,15.40
2018-09-14T02:17:14.702Z,15.30
2018-09-14T02:19:49.550Z,15.40
2018-09-14T02:22:24.470Z,15.30
2018-09-14T02:24:59.470Z,15.40
2018-09-14T02:27:34.940Z,15.40
2018-09-14T02:30:10.389Z,15.40
2018-09-14T02:32:45.382Z,15.30
2018-09-14T02:35:20.246Z,15.30
2018-09-14T02:37:55.063Z,15.30
2018-09-14T02:40:37.043Z,15.30
2018-09-14T02:43:11.805Z,15.10
2018-09-14T02:45:46.643Z,15.20
2018-09-14T02:48:21.766Z,15.20
2018-09-14T02:50:56.813Z,15.20
2018-09-14T02:53:32.290Z,15.20
2018-09-14T02:56:07.293Z,15.00
2018-09-14T02:58:42.391Z,14.90
2018-09-14T03:01:17.002Z,14.90
2018-09-14T03:03:51.822Z,15.00
2018-09-14T03:06:26.783Z,15.10
2018-09-14T03:09:01.912Z,15.10
2018-09-14T03:11:36.980Z,15.00
2018-09-14T03:14:11.701Z,15.00
2018-09-14T03:16:46.607Z,15.00
2018-09-14T03:19:21.657Z,15.00
2018-09-14T03:21:56.391Z,15.00
2018-09-14T03:24:31.950Z,14.90
2018-09-14T03:27:06.948Z,14.90
2018-09-14T03:29:42.380Z,14.70
2018-09-14T03:32:17.054Z,14.80
2018-09-14T03:34:51.936Z,14.90
2018-09-14T03:37:27.214Z,14.90
2018-09-14T03:40:02.521Z,14.90
2018-09-14T03:42:37.504Z,14.90
2018-09-14T03:45:12.173Z,14.90
2018-09-14T03:47:47.129Z,14.90
2018-09-14T03:50:21.759Z,14.80
2018-09-14T03:52:56.618Z,14.80
2018-09-14T03:55:31.346Z,14.70
2018-09-14T03:58:06.757Z,14.60
2018-09-14T04:00:41.685Z,14.40
2018-09-14T04:03:16.550Z,14.50
2018-09-14T04:05:51.398Z,14.50
2018-09-14T04:08:26.301Z,14.50
2018-09-14T04:11:01.031Z,14.50
2018-09-14T04:13:35.953Z,14.50
2018-09-14T04:16:10.831Z,14.60
2018-09-14T04:18:51.567Z,14.50
2018-09-14T04:21:26.193Z,14.50
2018-09-14T04:24:05.951Z,14.50
2018-09-14T04:26:41.058Z,14.40
2018-09-14T04:29:15.676Z,14.40
2018-09-14T04:31:50.423Z,14.50
2018-09-14T04:34:25.229Z,14.50
2018-09-14T04:37:00.957Z,14.50
2018-09-14T04:39:35.612Z,14.60
2018-09-14T04:42:10.586Z,14.50
2018-09-14T04:44:45.895Z,14.40
2018-09-14T04:47:21.484Z,14.50
2018-09-14T04:49:56.258Z,14.40
2018-09-14T04:52:32.489Z,14.50
2018-09-14T04:55:08.129Z,14.50
2018-09-14T04:57:42.829Z,14.40
2018-09-14T05:00:17.767Z,14.30
2018-09-14T05:02:52.649Z,14.30
2018-09-14T05:05:27.497Z,14.30
2018-09-14T05:08:02.412Z,14.30
2018-09-14T05:10:37.336Z,14.20
2018-09-14T05:13:12.188Z,14.20
2018-09-14T05:15:47.147Z,14.10
2018-09-14T05:18:29.201Z,14.10
2018-09-14T05:21:04.310Z,14.20
2018-09-14T05:23:39.127Z,14.10
2018-09-14T05:26:14.272Z,14.10
2018-09-14T05:28:49.175Z,14.10
2018-09-14T05:31:24.035Z,14.10
2018-09-14T05:33:59.005Z,14.10
2018-09-14T05:36:33.894Z,14.10
2018-09-14T05:39:09.521Z,14.10
2018-09-14T05:41:44.278Z,14.20
2018-09-14T05:44:19.140Z,14.10
2018-09-14T05:46:55.010Z,14.00
2018-09-14T05:49:30.046Z,14.00
2018-09-14T05:52:05.001Z,14.00
2018-09-14T05:54:39.727Z,14.00
2018-09-14T05:57:14.792Z,13.90
2018-09-14T05:59:49.871Z,14.00
2018-09-14T06:02:25.431Z,14.00
2018-09-14T06:05:01.621Z,14.00
2018-09-14T06:07:37.019Z,14.20
2018-09-14T06:10:11.816Z,14.30
2018-09-14T06:12:46.594Z,14.40
2018-09-14T06:15:21.227Z,14.40
2018-09-14T06:17:56.353Z,14.50
2018-09-14T06:20:31.415Z,14.70
2018-09-14T06:23:06.559Z,14.80
2018-09-14T06:25:41.960Z,15.00
2018-09-14T06:28:17.080Z,15.20
2018-09-14T06:30:51.723Z,15.50
2018-09-14T06:33:26.606Z,15.80
2018-09-14T06:36:01.564Z,16.00
2018-09-14T06:38:37.251Z,15.70
2018-09-14T06:41:12.236Z,15.50
2018-09-14T06:43:47.158Z,15.10
2018-09-14T06:46:22.487Z,15.30
2018-09-14T06:48:57.900Z,15.60
2018-09-14T06:51:34.027Z,15.70
2018-09-14T06:54:09.737Z,15.10
2018-09-14T06:56:44.693Z,15.10
2018-09-14T06:59:19.647Z,15.20
2018-09-14T07:01:54.750Z,15.50
2018-09-14T07:04:29.851Z,15.30
2018-09-14T07:07:04.598Z,15.40
2018-09-14T07:09:39.361Z,15.50
2018-09-14T07:12:15.044Z,15.50
2018-09-14T07:14:49.969Z,15.50
2018-09-14T07:17:24.914Z,15.40
2018-09-14T07:19:59.767Z,15.10
2018-09-14T07:22:34.798Z,14.90
2018-09-14T07:25:09.832Z,15.10
2018-09-14T07:27:44.725Z,15.40
2018-09-14T07:30:19.765Z,15.70
2018-09-14T07:32:54.917Z,15.90
2018-09-14T07:35:29.767Z,15.90
2018-09-14T07:38:04.618Z,15.80
2018-09-14T07:40:40.105Z,15.80
2018-09-14T07:43:14.788Z,15.90
2018-09-14T07:45:50.296Z,15.90
2018-09-14T07:48:25.465Z,15.90
2018-09-14T07:51:01.226Z,16.00
2018-09-14T07:53:36.406Z,16.30
2018-09-14T07:56:11.307Z,16.60
2018-09-14T07:58:46.777Z,16.80
2018-09-14T08:01:22.378Z,16.90
2018-09-14T08:03:58.354Z,16.60
2018-09-14T08:06:33.562Z,16.70
2018-09-14T08:09:11.290Z,16.60
2018-09-14T08:11:47.393Z,17.20
2018-09-14T08:14:22.905Z,17.50
2018-09-14T08:16:58.449Z,17.30
2018-09-14T08:19:34.287Z,17.10
2018-09-14T08:22:09.472Z,17.30
2018-09-14T08:24:45.149Z,17.70
2018-09-14T08:27:20.553Z,18.30
2018-09-14T08:29:56.053Z,18.90
2018-09-14T08:32:31.347Z,18.40
2018-09-14T08:35:07.056Z,18.60
2018-09-14T08:37:42.562Z,19.10
2018-09-14T08:40:17.993Z,20.20
2018-09-14T08:42:53.371Z,20.20
2018-09-14T08:45:28.874Z,21.10
2018-09-14T08:48:04.606Z,20.70
2018-09-14T08:50:40.025Z,21.80
2018-09-14T08:53:15.598Z,22.50
2018-09-14T08:55:50.896Z,22.40
2018-09-14T08:58:26.911Z,23.30
2018-09-14T09:01:02.378Z,22.50
2018-09-14T09:03:38.940Z,21.50
2018-09-14T09:06:15.088Z,21.40
2018-09-14T09:08:50.413Z,21.80
2018-09-14T09:11:26.197Z,22.90
2018-09-14T09:14:01.650Z,22.80
2018-09-14T09:16:37.790Z,23.70
2018-09-14T09:19:13.339Z,23.80
2018-09-14T09:21:49.398Z,24.20
2018-09-14T09:24:24.790Z,24.00
2018-09-14T09:27:00.461Z,23.90
2018-09-14T09:29:36.326Z,23.50
2018-09-14T09:32:12.828Z,23.20
2018-09-14T09:34:48.297Z,23.40
2018-09-14T09:37:24.943Z,22.70
2018-09-14T09:40:00.389Z,22.60
2018-09-14T09:42:35.858Z,23.00
2018-09-14T09:45:11.284Z,22.70
2018-09-14T09:47:46.816Z,23.30
2018-09-14T09:50:22.217Z,23.90
2018-09-14T09:52:57.595Z,25.60
2018-09-14T09:55:33.167Z,25.40
2018-09-14T09:58:08.729Z,26.00
2018-09-14T10:00:48.998Z,24.20
2018-09-14T10:03:29.763Z,23.00
2018-09-14T10:06:10.696Z,22.10
2018-09-14T10:08:46.370Z,21.40
2018-09-14T10:11:21.934Z,21.40
2018-09-14T10:13:58.324Z,21.50
2018-09-14T10:16:34.331Z,22.50
2018-09-14T10:19:09.913Z,24.70
2018-09-14T10:21:45.960Z,23.70
2018-09-14T10:24:21.968Z,23.10
2018-09-14T10:26:58.002Z,23.60
2018-09-14T10:29:34.006Z,23.70
2018-09-14T10:32:10.602Z,23.70
2018-09-14T10:34:45.930Z,24.50
2018-09-14T10:37:21.556Z,24.70
2018-09-14T10:39:57.249Z,24.00
2018-09-14T10:42:32.613Z,23.70
2018-09-14T10:45:08.298Z,24.00
2018-09-14T10:47:43.898Z,24.40
2018-09-14T10:50:19.201Z,23.90
2018-09-14T10:52:55.008Z,24.00
2018-09-14T10:55:30.491Z,23.50
2018-09-14T10:58:06.272Z,23.20
2018-09-14T11:00:41.822Z,22.70
2018-09-14T11:03:17.567Z,22.10
2018-09-14T11:05:53.100Z,21.60
2018-09-14T11:08:28.349Z,21.80
2018-09-14T11:11:03.733Z,21.70
2018-09-14T11:13:39.226Z,21.80
2018-09-14T11:16:15.402Z,21.90
2018-09-14T11:18:50.880Z,22.10
2018-09-14T11:21:26.641Z,22.70
2018-09-14T11:24:02.519Z,23.40
2018-09-14T11:26:37.997Z,24.30
2018-09-14T11:29:13.313Z,25.30
2018-09-14T11:31:48.387Z,26.90
2018-09-14T11:34:24.482Z,27.80
2018-09-14T11:37:00.005Z,30.00
2018-09-14T11:39:34.926Z,30.80
2018-09-14T11:42:10.829Z,31.30
2018-09-14T11:44:45.886Z,30.30
2018-09-14T11:47:21.206Z,31.00
2018-09-14T11:49:56.846Z,31.30
2018-09-14T11:52:32.361Z,31.10
2018-09-14T11:55:07.479Z,30.90
2018-09-14T11:57:42.846Z,30.00
2018-09-14T12:00:20.667Z,29.80
2018-09-14T12:02:56.635Z,29.20
2018-09-14T12:05:31.676Z,30.30
2018-09-14T12:08:06.813Z,29.80
2018-09-14T12:10:42.119Z,30.00
2018-09-14T12:13:17.421Z,29.70
2018-09-14T12:15:52.365Z,29.70
2018-09-14T12:18:27.594Z,31.80
2018-09-14T12:21:02.658Z,31.10
2018-09-14T12:23:40.737Z,30.90
2018-09-14T12:26:16.009Z,29.70
2018-09-14T12:28:55.860Z,27.30
2018-09-14T12:31:30.939Z,27.00
2018-09-14T12:34:06.973Z,27.30
2018-09-14T12:36:42.825Z,27.40
2018-09-14T12:39:18.009Z,27.60
2018-09-14T12:41:53.011Z,28.00
2018-09-14T12:44:28.187Z,28.10
2018-09-14T12:47:03.301Z,29.30
2018-09-14T12:49:38.414Z,29.10
2018-09-14T12:52:13.664Z,30.50
2018-09-14T12:54:49.089Z,28.70
2018-09-14T12:57:24.098Z,28.60
2018-09-14T12:59:59.876Z,27.70
2018-09-14T13:02:35.122Z,27.10
2018-09-14T13:05:10.695Z,26.40
2018-09-14T13:07:46.070Z,25.50
2018-09-14T13:10:21.220Z,26.20
2018-09-14T13:12:56.368Z,28.20
2018-09-14T13:15:31.611Z,29.70
2018-09-14T13:18:07.284Z,29.90
2018-09-14T13:20:42.423Z,29.00
2018-09-14T13:23:17.527Z,28.50
2018-09-14T13:25:52.622Z,28.10
2018-09-14T13:28:27.702Z,27.30
2018-09-14T13:31:02.839Z,28.80
2018-09-14T13:33:38.527Z,28.50
2018-09-14T13:36:13.899Z,30.60
2018-09-14T13:38:49.162Z,31.50
2018-09-14T13:41:25.076Z,32.10
2018-09-14T13:44:00.051Z,30.80
2018-09-14T13:46:36.317Z,29.20
2018-09-14T13:49:11.391Z,28.70
2018-09-14T13:51:46.677Z,27.70
2018-09-14T13:54:21.610Z,27.30
2018-09-14T13:56:56.933Z,27.90
2018-09-14T13:59:32.316Z,27.60
2018-09-14T14:02:07.994Z,27.40
2018-09-14T14:04:43.322Z,27.00
2018-09-14T14:07:18.812Z,26.80
2018-09-14T14:09:54.552Z,26.60
2018-09-14T14:12:30.668Z,25.60
2018-09-14T14:15:05.954Z,25.20
2018-09-14T14:17:41.556Z,25.40
2018-09-14T14:20:18.122Z,25.40
2018-09-14T14:22:53.723Z,25.60
2018-09-14T14:25:29.112Z,25.70
2018-09-14T14:28:04.394Z,25.80
2018-09-14T14:30:39.774Z,26.20
2018-09-14T14:33:16.677Z,25.70
2018-09-14T14:35:52.194Z,24.50
2018-09-14T14:38:27.429Z,25.20
2018-09-14T14:41:02.722Z,25.60
2018-09-14T14:43:38.529Z,25.90
2018-09-14T14:46:14.150Z,25.60
2018-09-14T14:48:50.343Z,25.80
2018-09-14T14:51:25.689Z,25.90
2018-09-14T14:54:01.112Z,26.00
2018-09-14T14:56:36.349Z,26.30
2018-09-14T14:59:11.948Z,26.80
2018-09-14T15:01:47.432Z,27.30
2018-09-14T15:04:22.584Z,27.10
2018-09-14T15:06:58.070Z,26.70
2018-09-14T15:09:33.430Z,26.50
2018-09-14T15:12:08.981Z,26.50
2018-09-14T15:14:44.440Z,26.50
2018-09-14T15:17:20.084Z,26.00
2018-09-14T15:19:55.465Z,25.70
2018-09-14T15:22:31.327Z,25.80
2018-09-14T15:25:07.098Z,25.60
2018-09-14T15:27:42.287Z,25.20
2018-09-14T15:30:17.852Z,24.40
2018-09-14T15:32:53.794Z,23.90
2018-09-14T15:35:29.638Z,24.00
2018-09-14T15:38:05.101Z,24.40
2018-09-14T15:40:40.786Z,24.30
2018-09-14T15:43:17.042Z,23.70
2018-09-14T15:45:52.470Z,23.90
2018-09-14T15:48:27.680Z,23.90
2018-09-14T15:51:03.429Z,23.50
2018-09-14T15:53:39.065Z,23.40
2018-09-14T15:56:14.470Z,23.60
2018-09-14T15:58:49.917Z,23.80
2018-09-14T16:01:25.477Z,23.70
2018-09-14T16:04:00.993Z,23.50
2018-09-14T16:06:36.286Z,23.70
2018-09-14T16:09:12.219Z,23.60
2018-09-14T16:11:47.786Z,23.60
2018-09-14T16:14:23.537Z,23.50
2018-09-14T16:16:59.645Z,23.30
2018-09-14T16:19:34.949Z,23.60
2018-09-14T16:22:10.287Z,23.70
2018-09-14T16:24:46.753Z,23.70
2018-09-14T16:27:22.154Z,23.70
2018-09-14T16:29:57.653Z,23.90
2018-09-14T16:32:33.146Z,24.50
2018-09-14T16:35:09.102Z,24.60
2018-09-14T16:37:45.153Z,25.20
2018-09-14T16:40:21.260Z,25.50
2018-09-14T16:42:57.182Z,25.50
2018-09-14T16:45:32.518Z,25.80
2018-09-14T16:48:08.399Z,25.80
2018-09-14T16:50:43.744Z,25.00
2018-09-14T16:53:19.217Z,24.50
2018-09-14T16:55:54.540Z,23.90
2018-09-14T16:58:30.177Z,23.60
2018-09-14T17:01:05.704Z,23.30
2018-09-14T17:03:41.231Z,23.00
2018-09-14T17:06:17.507Z,22.60
2018-09-14T17:08:52.891Z,22.40
2018-09-14T17:11:28.610Z,22.00
2018-09-14T17:14:04.722Z,22.00
2018-09-14T17:16:40.173Z,21.90
2018-09-14T17:19:15.317Z,21.80
2018-09-14T17:21:51.129Z,21.80
2018-09-14T17:24:26.531Z,21.60
2018-09-14T17:27:02.265Z,21.50
2018-09-14T17:29:37.985Z,21.30
2018-09-14T17:32:13.355Z,21.10
2018-09-14T17:34:49.014Z,21.10
2018-09-14T17:37:25.142Z,21.20
2018-09-14T17:40:00.646Z,21.10
2018-09-14T17:42:35.918Z,21.00
2018-09-14T17:45:11.745Z,21.00
2018-09-14T17:47:47.342Z,20.80
2018-09-14T17:50:22.872Z,20.80
2018-09-14T17:52:58.232Z,20.60
2018-09-14T17:55:33.626Z,20.70
2018-09-14T17:58:09.121Z,20.70
2018-09-14T18:00:44.845Z,20.70
2018-09-14T18:03:21.152Z,20.60
2018-09-14T18:05:56.523Z,20.60
2018-09-14T18:08:31.838Z,20.60
2018-09-14T18:11:08.278Z,20.40
2018-09-14T18:13:44.015Z,20.50
2018-09-14T18:16:19.545Z,20.40
2018-09-14T18:18:55.327Z,20.40
2018-09-14T18:21:31.462Z,20.40
2018-09-14T18:24:07.378Z,20.30
2018-09-14T18:26:43.106Z,20.30
2018-09-14T18:29:18.346Z,20.30
2018-09-14T18:31:53.667Z,20.30
2018-09-14T18:34:29.480Z,20.60
2018-09-14T18:37:05.501Z,20.20
2018-09-14T18:39:40.986Z,20.20
2018-09-14T18:42:17.040Z,20.10
2018-09-14T18:44:52.322Z,20.00
2018-09-14T18:47:27.981Z,19.90
2018-09-14T18:50:03.252Z,19.80
2018-09-14T18:52:39.320Z,19.70
2018-09-14T18:55:14.974Z,19.70
2018-09-14T18:57:51.195Z,19.70
2018-09-14T19:00:27.435Z,19.60
2018-09-14T19:03:02.813Z,19.50
2018-09-14T19:05:38.369Z,19.60
2018-09-14T19:08:14.037Z,19.50
2018-09-14T19:10:49.719Z,19.50
2018-09-14T19:13:25.849Z,19.60
2018-09-14T19:16:01.537Z,19.60
2018-09-14T19:18:37.784Z,19.60
2018-09-14T19:21:13.134Z,19.60
2018-09-14T19:23:49.073Z,19.50
2018-09-14T19:26:24.461Z,19.50
2018-09-14T19:28:59.690Z,19.20
2018-09-14T19:31:34.989Z,18.90
2018-09-14T19:34:10.833Z,18.90
2018-09-14T19:36:46.041Z,19.00
2018-09-14T19:39:21.578Z,19.10
2018-09-14T19:41:56.903Z,19.00
2018-09-14T19:44:32.360Z,19.10
2018-09-14T19:47:07.918Z,19.00
2018-09-14T19:49:43.463Z,18.90
2018-09-14T19:52:20.369Z,18.90
2018-09-14T19:54:55.681Z,18.70
2018-09-14T19:57:31.119Z,18.50
2018-09-14T20:00:07.317Z,18.50
2018-09-14T20:02:42.778Z,18.50
2018-09-14T20:05:19.283Z,18.60
2018-09-14T20:07:54.787Z,18.70
2018-09-14T20:10:30.232Z,18.60
2018-09-14T20:13:12.210Z,18.50
2018-09-14T20:15:47.938Z,18.50
2018-09-14T20:18:24.311Z,18.40
2018-09-14T20:21:00.001Z,18.40
2018-09-14T20:23:35.304Z,18.30
2018-09-14T20:26:10.938Z,18.20
2018-09-14T20:28:46.409Z,18.20
2018-09-14T20:31:21.817Z,18.10
2018-09-14T20:33:57.293Z,18.00
2018-09-14T20:36:32.049Z,17.90
2018-09-14T20:39:10.884Z,17.80
2018-09-14T20:41:46.294Z,17.70
2018-09-14T20:44:21.467Z,17.70
2018-09-14T20:46:56.393Z,17.60
2018-09-14T20:49:31.817Z,17.70
2018-09-14T20:52:06.978Z,17.60
2018-09-14T20:54:42.395Z,17.40
2018-09-14T20:57:24.814Z,17.30
2018-09-14T21:00:00.354Z,17.30
2018-09-14T21:02:35.103Z,17.20
2018-09-14T21:05:10.106Z,17.20
2018-09-14T21:07:44.979Z,17.10
2018-09-14T21:10:19.671Z,17.10
2018-09-14T21:12:54.542Z,16.90
2018-09-14T21:15:29.956Z,16.90
2018-09-14T21:18:06.409Z,16.80
2018-09-14T21:20:41.165Z,16.70
2018-09-14T21:23:16.111Z,16.60
2018-09-14T21:25:50.915Z,16.70
2018-09-14T21:28:25.893Z,16.60
2018-09-14T21:31:01.037Z,16.30
2018-09-14T21:33:35.847Z,16.20
2018-09-14T21:36:10.794Z,16.30
2018-09-14T21:38:45.761Z,16.30
2018-09-14T21:41:21.064Z,16.30
2018-09-14T21:43:56.141Z,16.20
2018-09-14T21:46:31.017Z,16.20
2018-09-14T21:49:06.162Z,16.10
2018-09-14T21:51:40.890Z,16.10
2018-09-14T21:54:16.597Z,16.00
2018-09-14T21:56:51.360Z,16.00
2018-09-14T21:59:26.445Z,15.70
2018-09-14T22:02:01.351Z,15.70
2018-09-14T22:04:36.300Z,15.80
2018-09-14T22:07:11.123Z,15.70
2018-09-14T22:09:45.998Z,15.80
2018-09-14T22:12:20.711Z,15.60
2018-09-14T22:14:55.368Z,15.50
2018-09-14T22:17:30.213Z,15.40
2018-09-14T22:20:05.946Z,15.40
2018-09-14T22:22:40.739Z,15.30
2018-09-14T22:25:15.578Z,15.40
2018-09-14T22:27:50.511Z,15.40
2018-09-14T22:30:25.506Z,15.40
2018-09-14T22:33:00.474Z,15.40
2018-09-14T22:35:35.194Z,15.40
2018-09-14T22:38:09.793Z,15.50
2018-09-14T22:40:45.298Z,15.60
2018-09-14T22:43:19.997Z,15.70
2018-09-14T22:45:54.921Z,15.70
2018-09-14T22:48:30.120Z,15.60
2018-09-14T22:51:04.992Z,15.60
2018-09-14T22:53:39.832Z,15.70
2018-09-14T22:56:14.502Z,15.70
2018-09-14T22:58:49.775Z,15.80
2018-09-14T23:01:24.710Z,15.80
2018-09-14T23:04:00.293Z,15.60
2018-09-14T23:06:35.604Z,15.60
2018-09-14T23:09:10.635Z,15.70
2018-09-14T23:11:45.669Z,15.80
2018-09-14T23:14:21.794Z,15.70
2018-09-14T23:16:57.162Z,15.70
2018-09-14T23:19:33.085Z,15.70
2018-09-14T23:22:07.780Z,15.60
2018-09-14T23:24:42.579Z,15.50
2018-09-14T23:27:17.205Z,15.70
2018-09-14T23:29:51.957Z,15.70
2018-09-14T23:32:27.324Z,15.70
2018-09-14T23:35:02.168Z,15.70
2018-09-14T23:37:37.160Z,15.60
2018-09-14T23:40:11.815Z,15.70
2018-09-14T23:42:46.730Z,15.80
2018-09-14T23:45:21.491Z,15.80
2018-09-14T23:47:56.559Z,15.70
2018-09-14T23:50:31.394Z,15.70
2018-09-14T23:53:06.471Z,15.70
2018-09-14T23:55:41.117Z,15.60
2018-09-14T23:58:15.962Z,15.70
